sensor_id;sensor_type;location;lat;lon;timestamp;pressure;altitude;pressure_sealevel;temperature;humidity
19674;BME280;9986;50.610;7.230;2023-08-20T00:06:52;64897.33;;;22.13;100.00
19674;BME280;9986;50.610;7.230;2023-08-20T00:14:57;63540.46;;;22.16;100.00
19674;BME280;9986;50.610;7.230;2023-08-20T00:22:58;67268.41;;;22.04;100.00
19674;BME280;9986;50.610;7.230;2023-08-20T00:30:52;75611.09;;;22.00;100.00
19674;BME280;9986;50.610;7.230;2023-08-20T00:36:06;50962.89;;;21.94;100.00
19674;BME280;9986;50.610;7.230;2023-08-20T00:41:18;57947.84;;;22.00;100.00
19674;BME280;9986;50.610;7.230;2023-08-20T00:46:32;42000.29;;;21.93;100.00
19674;BME280;9986;50.610;7.230;2023-08-20T00:57:09;34906.99;;;21.80;100.00
19674;BME280;9986;50.610;7.230;2023-08-20T01:13:47;47396.68;;;21.79;100.00
19674;BME280;9986;50.610;7.230;2023-08-20T01:19:00;57748.14;;;21.76;100.00
19674;BME280;9986;50.610;7.230;2023-08-20T01:24:23;60436.07;;;21.74;100.00
19674;BME280;9986;50.610;7.230;2023-08-20T01:43:09;58822.90;;;21.58;100.00
19674;BME280;9986;50.610;7.230;2023-08-20T02:01:53;63109.80;;;21.36;100.00
19674;BME280;9986;50.610;7.230;2023-08-20T02:07:08;64632.28;;;21.31;100.00
19674;BME280;9986;50.610;7.230;2023-08-20T02:12:21;62754.72;;;21.22;100.00
19674;BME280;9986;50.610;7.230;2023-08-20T02:17:29;52414.95;;;21.18;100.00
19674;BME280;9986;50.610;7.230;2023-08-20T02:22:44;58121.38;;;21.16;100.00
19674;BME280;9986;50.610;7.230;2023-08-20T02:30:41;48842.42;;;20.93;100.00
19674;BME280;9986;50.610;7.230;2023-08-20T02:38:38;32337.05;;;21.09;100.00
19674;BME280;9986;50.610;7.230;2023-08-20T02:43:47;49360.39;;;21.06;100.00
19674;BME280;9986;50.610;7.230;2023-08-20T02:57:09;53912.28;;;20.91;100.00
19674;BME280;9986;50.610;7.230;2023-08-20T03:05:03;38209.31;;;20.83;100.00
19674;BME280;9986;50.610;7.230;2023-08-20T03:10:18;46979.12;;;20.87;100.00
19674;BME280;9986;50.610;7.230;2023-08-20T03:23:25;40576.71;;;20.96;100.00
19674;BME280;9986;50.610;7.230;2023-08-20T03:28:34;36027.57;;;20.93;100.00
19674;BME280;9986;50.610;7.230;2023-08-20T03:36:24;34006.15;;;20.89;100.00
19674;BME280;9986;50.610;7.230;2023-08-20T03:44:15;28619.69;;;20.72;100.00
19674;BME280;9986;50.610;7.230;2023-08-20T03:49:28;32654.82;;;20.79;100.00
19674;BME280;9986;50.610;7.230;2023-08-20T04:02:46;39549.97;;;20.74;100.00
19674;BME280;9986;50.610;7.230;2023-08-20T04:10:43;29125.83;;;20.77;100.00
19674;BME280;9986;50.610;7.230;2023-08-20T04:18:35;33159.11;;;20.79;100.00
19674;BME280;9986;50.610;7.230;2023-08-20T04:26:37;36179.64;;;20.69;100.00
19674;BME280;9986;50.610;7.230;2023-08-20T04:31:50;28781.75;;;20.62;100.00
19674;BME280;9986;50.610;7.230;2023-08-20T04:52:55;8703.45;;;20.70;100.00
19674;BME280;9986;50.610;7.230;2023-08-20T05:19:35;-294.95;;;20.60;100.00
19674;BME280;9986;50.610;7.230;2023-08-20T05:32:48;19236.71;;;20.82;100.00
19674;BME280;9986;50.610;7.230;2023-08-20T05:43:22;19403.92;;;20.82;100.00
19674;BME280;9986;50.610;7.230;2023-08-20T05:48:32;1868.28;;;20.58;100.00
19674;BME280;9986;50.610;7.230;2023-08-20T05:53:45;371.18;;;20.66;100.00
19674;BME280;9986;50.610;7.230;2023-08-20T06:07:02;12548.14;;;20.87;100.00
19674;BME280;9986;50.610;7.230;2023-08-20T06:14:52;19241.89;;;20.95;100.00
19674;BME280;9986;50.610;7.230;2023-08-20T06:22:45;19914.42;;;21.02;100.00
19674;BME280;9986;50.610;7.230;2023-08-20T06:27:59;17406.15;;;21.11;100.00
19674;BME280;9986;50.610;7.230;2023-08-20T06:35:48;17576.34;;;21.18;100.00
19674;BME280;9986;50.610;7.230;2023-08-20T06:41:04;21934.79;;;21.24;100.00
19674;BME280;9986;50.610;7.230;2023-08-20T06:48:55;25793.81;;;21.25;100.00
19674;BME280;9986;50.610;7.230;2023-08-20T06:56:46;25796.84;;;21.31;100.00
19674;BME280;9986;50.610;7.230;2023-08-20T07:01:59;22107.36;;;21.35;100.00
19674;BME280;9986;50.610;7.230;2023-08-20T07:07:13;17748.07;;;21.30;100.00
19674;BME280;9986;50.610;7.230;2023-08-20T07:17:50;2375.60;;;21.21;100.00
19674;BME280;9986;50.610;7.230;2023-08-20T07:28:24;-6611.88;;;21.13;100.00
19674;BME280;9986;50.610;7.230;2023-08-20T07:38:57;3044.36;;;21.36;100.00
19674;BME280;9986;50.610;7.230;2023-08-20T07:49:35;710.52;;;21.33;100.00
19674;BME280;9986;50.610;7.230;2023-08-20T07:54:42;-121.27;;;21.47;100.00
19674;BME280;9986;50.610;7.230;2023-08-20T08:08:01;213.93;;;21.68;100.00
19674;BME280;9986;50.610;7.230;2023-08-20T08:15:54;4218.38;;;21.78;100.00
19674;BME280;9986;50.610;7.230;2023-08-20T08:23:45;7060.19;;;21.93;100.00
19674;BME280;9986;50.610;7.230;2023-08-20T08:28:58;7562.79;;;21.99;100.00
19674;BME280;9986;50.610;7.230;2023-08-20T08:39:34;21138.20;;;22.20;100.00
19674;BME280;9986;50.610;7.230;2023-08-20T08:50:09;99196.84;;;22.81;100.00
19674;BME280;9986;50.610;7.230;2023-08-20T08:55:22;54921.30;;;22.57;100.00
19674;BME280;9986;50.610;7.230;2023-08-20T09:27:24;148663.19;;;23.26;100.00
19674;BME280;9986;50.610;7.230;2023-08-20T09:48:47;148810.83;;;23.83;100.00
19674;BME280;9986;50.610;7.230;2023-08-20T09:59:30;148885.89;;;24.13;100.00
19674;BME280;9986;50.610;7.230;2023-08-20T10:04:44;148929.19;;;24.30;100.00
19674;BME280;9986;50.610;7.230;2023-08-20T10:09:54;148931.75;;;24.31;100.00
19674;BME280;9986;50.610;7.230;2023-08-20T10:15:14;148995.44;;;24.56;100.00
19674;BME280;9986;50.610;7.230;2023-08-20T10:31:16;149147.05;;;25.15;100.00
19674;BME280;9986;50.610;7.230;2023-08-20T10:47:57;149164.86;;;25.22;100.00
19674;BME280;9986;50.610;7.230;2023-08-20T11:20:55;149468.25;;;26.40;100.00
19674;BME280;9986;50.610;7.230;2023-08-20T11:28:49;149648.20;;;27.10;100.00
19674;BME280;9986;50.610;7.230;2023-08-20T11:47:56;149858.89;;;27.92;100.00
19674;BME280;9986;50.610;7.230;2023-08-20T12:01:13;150127.22;;;28.97;100.00
19674;BME280;9986;50.610;7.230;2023-08-20T12:06:24;150161.69;;;29.10;100.00
19674;BME280;9986;50.610;7.230;2023-08-20T12:27:47;150472.45;;;30.31;100.00
19674;BME280;9986;50.610;7.230;2023-08-20T13:11:12;150784.83;;;31.52;97.84
19674;BME280;9986;50.610;7.230;2023-08-20T13:22:03;150965.48;;;32.23;100.00
19674;BME280;9986;50.610;7.230;2023-08-20T13:30:02;150816.91;;;31.65;98.41
19674;BME280;9986;50.610;7.230;2023-08-20T13:43:24;150848.89;;;31.77;99.21
19674;BME280;9986;50.610;7.230;2023-08-20T13:53:53;150900.14;;;31.97;95.32
19674;BME280;9986;50.610;7.230;2023-08-20T13:59:03;150978.31;;;32.28;94.73
19674;BME280;9986;50.610;7.230;2023-08-20T14:06:56;151025.72;;;32.46;93.99
19674;BME280;9986;50.610;7.230;2023-08-20T14:33:55;151112.88;;;32.80;95.89
19674;BME280;9986;50.610;7.230;2023-08-20T14:44:37;151092.39;;;32.72;93.92
19674;BME280;9986;50.610;7.230;2023-08-20T14:49:51;150966.80;;;32.23;93.12
19674;BME280;9986;50.610;7.230;2023-08-20T15:00:33;151135.98;;;32.89;95.92
19674;BME280;9986;50.610;7.230;2023-08-20T15:08:33;151220.59;;;33.22;93.29
19674;BME280;9986;50.610;7.230;2023-08-20T15:13:46;151110.31;;;32.79;95.51
19674;BME280;9986;50.610;7.230;2023-08-20T15:19:03;151005.23;;;32.38;93.48
19674;BME280;9986;50.610;7.230;2023-08-20T15:27:01;151064.20;;;32.61;93.93
19674;BME280;9986;50.610;7.230;2023-08-20T15:37:36;151032.11;;;32.48;95.18
19674;BME280;9986;50.610;7.230;2023-08-20T15:42:45;150965.48;;;32.23;98.26
19674;BME280;9986;50.610;7.230;2023-08-20T15:58:37;151014.19;;;32.42;97.70
19674;BME280;9986;50.610;7.230;2023-08-20T16:06:34;150939.88;;;32.13;98.46
19674;BME280;9986;50.610;7.230;2023-08-20T16:19:53;150718.25;;;31.27;100.00
19674;BME280;9986;50.610;7.230;2023-08-20T16:38:29;150846.33;;;31.76;100.00
19674;BME280;9986;50.610;7.230;2023-08-20T16:46:23;150800.27;;;31.58;100.00
19674;BME280;9986;50.610;7.230;2023-08-20T16:51:36;150813.03;;;31.63;100.00
19674;BME280;9986;50.610;7.230;2023-08-20T16:56:50;150710.56;;;31.24;100.00
19674;BME280;9986;50.610;7.230;2023-08-20T17:02:06;150709.31;;;31.23;100.00
19674;BME280;9986;50.610;7.230;2023-08-20T17:07:26;150613.25;;;30.86;100.00
19674;BME280;9986;50.610;7.230;2023-08-20T17:15:22;150524.95;;;30.51;100.00
19674;BME280;9986;50.610;7.230;2023-08-20T17:23:26;150452.02;;;30.23;100.00
19674;BME280;9986;50.610;7.230;2023-08-20T17:28:40;150431.56;;;30.15;100.00
19674;BME280;9986;50.610;7.230;2023-08-20T17:33:54;150361.16;;;29.88;100.00
19674;BME280;9986;50.610;7.230;2023-08-20T17:39:07;150320.22;;;29.72;100.00
19674;BME280;9986;50.610;7.230;2023-08-20T17:47:01;150253.75;;;29.46;100.00
19674;BME280;9986;50.610;7.230;2023-08-20T17:54:52;150095.25;;;28.84;100.00
19674;BME280;9986;50.610;7.230;2023-08-20T18:00:06;149948.30;;;28.27;100.00
19674;BME280;9986;50.610;7.230;2023-08-20T18:10:45;149943.19;;;28.25;100.00
19674;BME280;9986;50.610;7.230;2023-08-20T18:15:59;149856.33;;;27.91;100.00
19674;BME280;9986;50.610;7.230;2023-08-20T18:21:12;149680.13;;;27.23;100.00
19674;BME280;9986;50.610;7.230;2023-08-20T18:26:25;149621.39;;;27.00;100.00
19674;BME280;9986;50.610;7.230;2023-08-20T18:37:08;149330.56;;;25.86;100.00
19674;BME280;9986;50.610;7.230;2023-08-20T18:50:26;149256.63;;;25.58;100.00
19674;BME280;9986;50.610;7.230;2023-08-20T18:55:39;149205.64;;;25.38;100.00
19674;BME280;9986;50.610;7.230;2023-08-20T19:00:52;149234.97;;;25.49;100.00
19674;BME280;9986;50.610;7.230;2023-08-20T19:06:06;149266.80;;;25.61;100.00
19674;BME280;9986;50.610;7.230;2023-08-20T19:11:19;149259.19;;;25.58;100.00
19674;BME280;9986;50.610;7.230;2023-08-20T19:16:28;149195.44;;;25.34;100.00
19674;BME280;9986;50.610;7.230;2023-08-20T19:21:41;149200.53;;;25.36;100.00
19674;BME280;9986;50.610;7.230;2023-08-20T19:29:40;149122.78;;;25.05;100.00
19674;BME280;9986;50.610;7.230;2023-08-20T19:42:55;149157.25;;;25.19;100.00
19674;BME280;9986;50.610;7.230;2023-08-20T19:48:08;149157.25;;;25.19;100.00
19674;BME280;9986;50.610;7.230;2023-08-20T19:53:26;149052.75;;;24.78;100.00
19674;BME280;9986;50.610;7.230;2023-08-20T20:01:23;148992.89;;;24.55;100.00
19674;BME280;9986;50.610;7.230;2023-08-20T20:19:59;148861.70;;;24.03;100.00
19674;BME280;9986;50.610;7.230;2023-08-20T20:33:12;148972.55;;;24.47;100.00
19674;BME280;9986;50.610;7.230;2023-08-20T20:38:32;148859.20;;;24.02;100.00
19674;BME280;9986;50.610;7.230;2023-08-20T20:46:26;148803.19;;;23.80;100.00
19674;BME280;9986;50.610;7.230;2023-08-20T21:02:26;148823.56;;;23.88;100.00
19674;BME280;9986;50.610;7.230;2023-08-20T21:15:38;148743.37;;;23.57;100.00
19674;BME280;9986;50.610;7.230;2023-08-20T21:20:51;148716.62;;;23.47;100.00
19674;BME280;9986;50.610;7.230;2023-08-20T21:26:04;148701.34;;;23.41;100.00
19674;BME280;9986;50.610;7.230;2023-08-20T21:31:17;148719.19;;;23.48;100.00
19674;BME280;9986;50.610;7.230;2023-08-20T21:44:33;148708.98;;;23.44;100.00
19674;BME280;9986;50.610;7.230;2023-08-20T21:52:25;148696.25;;;23.39;100.00
19674;BME280;9986;50.610;7.230;2023-08-20T21:57:42;148663.19;;;23.26;100.00
19674;BME280;9986;50.610;7.230;2023-08-20T22:16:28;148627.56;;;23.12;100.00
19674;BME280;9986;50.610;7.230;2023-08-20T22:24:19;148505.47;;;22.64;100.00
19674;BME280;9986;50.610;7.230;2023-08-20T22:45:34;148515.66;;;22.68;100.00
19674;BME280;9986;50.610;7.230;2023-08-20T22:58:46;148464.78;;;22.48;100.00
19674;BME280;9986;50.610;7.230;2023-08-20T23:03:58;148352.94;;;22.04;100.00
19674;BME280;9986;50.610;7.230;2023-08-20T23:14:31;148429.19;;;22.34;100.00
19674;BME280;9986;50.610;7.230;2023-08-20T23:27:44;148369.45;;;22.11;100.00
19674;BME280;9986;50.610;7.230;2023-08-20T23:59:29;148304.64;;;21.85;100.00
